Time;durP1;ratioP1;P1;durP2;ratioP2;P2;SDS_P1;SDS_P2;PMS_P1;PMS_P2;Temp;Humidity;BMP_temperature;BMP_pressure;BME280_temperature;BME280_humidity;BME280_pressure;Samples;Min_cycle;Max_cycle;Signal;HPM_P1;HPM_P2
2022/11/09 00:02:14;;;;;;;2.65;1.63;;;;;;;18.68;56.85;100254.13;5051755;28;20164;-40
2022/11/09 00:04:39;;;;;;;2.95;1.90;;;;;;;18.70;56.95;100260.13;5044396;28;20039;-40
2022/11/09 00:07:05;;;;;;;2.85;2.03;;;;;;;18.69;56.92;100260.19;5049221;28;20043;-40
2022/11/09 00:09:30;;;;;;;4.45;1.90;;;;;;;18.70;56.89;100264.53;5046241;28;20041;-40
2022/11/09 00:11:55;;;;;;;4.90;2.60;;;;;;;18.69;57.03;100262.84;5048458;28;20033;-40
2022/11/09 00:14:21;;;;;;;4.03;2.38;;;;;;;18.69;56.91;100273.34;5053754;28;20139;-40
2022/11/09 00:16:46;;;;;;;5.57;2.45;;;;;;;18.69;56.70;100270.72;5047601;28;20140;-41
2022/11/09 00:19:12;;;;;;;4.45;2.20;;;;;;;18.69;56.89;100257.56;5044567;28;20660;-40
2022/11/09 00:21:38;;;;;;;3.80;2.22;;;;;;;18.68;56.93;100258.53;5048301;28;20054;-40
2022/11/09 00:24:04;;;;;;;2.85;1.75;;;;;;;18.67;56.89;100262.09;5048314;28;20556;-40
2022/11/09 00:26:29;;;;;;;4.88;1.90;;;;;;;18.68;56.89;100266.44;5048371;28;20854;-40
2022/11/09 00:28:55;;;;;;;4.07;2.28;;;;;;;18.67;56.97;100268.22;5053420;28;20037;-40
2022/11/09 00:31:22;;;;;;;4.28;2.10;;;;;;;18.68;56.85;100269.91;5055420;28;20033;-41
2022/11/09 00:33:54;;;;;;;3.00;1.95;;;;;;;18.67;56.96;100265.56;5046536;28;20095;-40
2022/11/09 00:36:20;;;;;;;4.15;1.80;;;;;;;18.69;56.92;100268.94;5051484;28;20045;-40
2022/11/09 00:38:54;;;;;;;3.60;1.85;;;;;;;18.69;56.97;100268.09;5049129;28;20041;-40
2022/11/09 00:41:21;;;;;;;6.22;2.10;;;;;;;18.67;57.03;100264.72;5046780;28;20033;-41
2022/11/09 00:43:48;;;;;;;4.28;1.98;;;;;;;18.66;57.05;100263.88;5051480;28;20055;-40
2022/11/09 00:46:13;;;;;;;3.22;1.75;;;;;;;18.67;56.99;100260.31;5046640;28;20033;-40
2022/11/09 00:48:39;;;;;;;3.13;2.00;;;;;;;18.68;56.93;100266.44;5045161;28;20040;-40
2022/11/09 00:51:05;;;;;;;3.35;1.95;;;;;;;18.67;56.99;100262.94;5052743;28;20746;-41
2022/11/09 00:53:30;;;;;;;3.90;2.13;;;;;;;18.68;56.97;100274.31;5048481;28;20122;-40
2022/11/09 00:56:03;;;;;;;5.13;2.20;;;;;;;18.67;56.92;100275.25;5048616;28;20054;-40
2022/11/09 00:58:31;;;;;;;2.85;1.90;;;;;;;18.68;57.00;100287.47;5049436;28;20031;-41
2022/11/09 01:00:58;;;;;;;3.25;1.70;;;;;;;18.66;56.92;100284.91;5048010;28;20079;-40
2022/11/09 01:03:24;;;;;;;3.95;2.33;;;;;;;18.66;56.96;100284.91;5054422;28;20103;-40
2022/11/09 01:05:50;;;;;;;3.58;2.05;;;;;;;18.67;56.91;100280.50;5046347;28;20388;-41
2022/11/09 01:08:16;;;;;;;2.85;1.52;;;;;;;18.66;56.90;100282.28;5047656;28;20589;-39
2022/11/09 01:10:43;;;;;;;2.20;1.45;;;;;;;18.63;57.13;100282.47;5048470;28;20029;-40
2022/11/09 01:13:10;;;;;;;3.72;2.15;;;;;;;18.63;57.03;100287.75;5042662;28;20435;-40
2022/11/09 01:15:45;;;;;;;3.20;2.00;;;;;;;18.64;57.10;100285.97;5048406;28;20468;-40
2022/11/09 01:18:11;;;;;;;2.83;1.77;;;;;;;18.65;56.91;100288.50;5050413;28;20028;-40
2022/11/09 01:20:42;;;;;;;2.22;1.65;;;;;;;18.66;57.01;100284.06;5045024;28;20041;-40
2022/11/09 01:23:08;;;;;;;3.33;2.22;;;;;;;18.66;56.91;100290.19;5051952;28;20040;-40
2022/11/09 01:25:34;;;;;;;3.30;2.00;;;;;;;18.64;56.89;100288.59;5042029;28;20029;-40
2022/11/09 01:27:59;;;;;;;3.30;1.67;;;;;;;18.66;57.06;100289.34;5054987;28;20032;-39
2022/11/09 01:30:25;;;;;;;2.88;1.67;;;;;;;18.62;56.88;100288.69;5052304;28;20386;-41
2022/11/09 01:32:52;;;;;;;3.13;1.92;;;;;;;18.63;56.99;100271.09;5047476;28;20486;-40
2022/11/09 01:35:18;;;;;;;3.38;1.92;;;;;;;18.63;56.92;100279.00;5050756;28;20401;-40
2022/11/09 01:37:43;;;;;;;3.13;1.90;;;;;;;18.63;57.12;100277.22;5046072;28;20036;-40
2022/11/09 01:40:09;;;;;;;3.40;2.03;;;;;;;18.64;56.97;100278.06;5047591;28;20040;-40
2022/11/09 01:42:36;;;;;;;2.38;1.73;;;;;;;18.64;57.01;100280.69;5057540;28;20811;-40
2022/11/09 01:45:17;;;;;;;4.32;2.00;;;;;;;18.62;56.99;100278.19;5048640;28;20033;-42
2022/11/09 01:47:47;;;;;;;3.10;1.70;;;;;;;18.61;57.15;100268.59;5052906;28;20044;-41
2022/11/09 01:50:16;;;;;;;2.72;1.58;;;;;;;18.62;57.00;100269.44;5048614;28;20037;-41
2022/11/09 01:52:45;;;;;;;2.60;1.75;;;;;;;18.62;57.03;100261.53;5051039;28;20041;-40
2022/11/09 01:55:17;;;;;;;2.35;1.52;;;;;;;18.61;57.12;100263.31;5050266;28;20044;-41
2022/11/09 01:58:04;;;;;;;5.43;2.03;;;;;;;18.60;56.97;100264.25;5046491;28;20036;-40
2022/11/09 02:00:33;;;;;;;2.85;1.60;;;;;;;18.62;56.76;100262.41;5045052;28;20044;-41
2022/11/09 02:03:04;;;;;;;3.63;1.98;;;;;;;18.61;56.86;100255.44;5043858;28;20033;-40
2022/11/09 02:05:32;;;;;;;2.67;1.90;;;;;;;18.61;56.96;100262.47;5051247;28;20128;-40
2022/11/09 02:08:01;;;;;;;3.05;1.92;;;;;;;18.62;56.89;100267.66;5050909;28;20082;-39
2022/11/09 02:10:38;;;;;;;2.97;1.70;;;;;;;18.61;56.97;100279.09;5048524;28;20021;-40
2022/11/09 02:13:04;;;;;;;2.22;1.50;;;;;;;18.62;56.85;100270.28;5050326;28;20063;-40
2022/11/09 02:15:30;;;;;;;2.53;1.50;;;;;;;18.61;56.88;100273.84;5046981;28;20694;-40
2022/11/09 02:17:56;;;;;;;2.85;1.77;;;;;;;18.61;57.10;100271.22;5050764;28;20040;-40
2022/11/09 02:20:23;;;;;;;2.60;1.73;;;;;;;18.61;56.88;100273.84;5050435;28;20040;-40
2022/11/09 02:22:49;;;;;;;3.38;2.15;;;;;;;18.60;56.90;100277.41;5047960;28;20591;-40
2022/11/09 02:25:16;;;;;;;2.80;1.70;;;;;;;18.61;56.82;100273.00;5052723;28;20036;-40
2022/11/09 02:27:42;;;;;;;2.55;1.50;;;;;;;18.61;56.98;100273.00;5042331;28;20119;-40
2022/11/09 02:30:09;;;;;;;3.08;1.60;;;;;;;18.60;57.03;100268.69;5045357;28;20043;-40
2022/11/09 02:32:35;;;;;;;2.97;1.83;;;;;;;18.60;57.12;100268.69;5051601;28;20032;-40
2022/11/09 02:35:00;;;;;;;2.55;1.65;;;;;;;18.60;57.10;100268.69;5051186;28;20032;-40
2022/11/09 02:37:26;;;;;;;2.40;1.63;;;;;;;18.60;57.07;100269.50;5042285;28;20051;-39
2022/11/09 02:39:52;;;;;;;2.63;1.70;;;;;;;18.60;56.98;100273.97;5043857;28;20029;-40
2022/11/09 02:42:18;;;;;;;3.55;1.83;;;;;;;18.60;56.81;100261.63;5048009;28;20068;-40
2022/11/09 02:44:48;;;;;;;3.47;1.55;;;;;;;18.61;57.11;100257.22;5050964;28;20156;-40
2022/11/09 02:47:13;;;;;;;5.18;1.73;;;;;;;18.60;56.91;100264.25;5049040;28;20032;-40
2022/11/09 02:49:39;;;;;;;2.42;1.55;;;;;;;18.60;56.92;100276.59;5065030;28;20037;-40
2022/11/09 02:52:04;;;;;;;3.00;1.67;;;;;;;18.60;56.82;100263.44;5047255;28;20033;-42
2022/11/09 02:54:29;;;;;;;2.75;1.60;;;;;;;18.58;57.08;100271.41;5043231;28;20147;-40
2022/11/09 02:56:55;;;;;;;2.90;1.55;;;;;;;18.58;56.93;100260.88;5047059;28;20108;-41
2022/11/09 02:59:20;;;;;;;3.45;1.50;;;;;;;18.59;57.13;100267.84;5044300;28;20144;-40
2022/11/09 03:01:45;;;;;;;2.05;1.50;;;;;;;18.58;57.00;100265.28;5048620;28;20056;-41
2022/11/09 03:04:11;;;;;;;2.40;1.60;;;;;;;18.58;56.99;100274.03;5053772;28;20109;-41
2022/11/09 03:06:37;;;;;;;2.75;2.30;;;;;;;18.58;57.11;100274.03;5048113;28;20553;-41
2022/11/09 03:09:10;;;;;;;2.03;1.50;;;;;;;18.59;56.97;100264.38;5052922;28;20037;-41
2022/11/09 03:11:36;;;;;;;2.63;1.50;;;;;;;18.58;57.03;100276.66;5052466;28;20032;-41
2022/11/09 03:14:02;;;;;;;2.55;1.50;;;;;;;18.59;57.08;100278.38;5047848;28;20053;-42
2022/11/09 03:16:28;;;;;;;2.55;1.50;;;;;;;18.60;56.87;100280.03;5055559;28;20573;-41
2022/11/09 03:18:54;;;;;;;1.98;1.40;;;;;;;18.59;56.91;100277.53;5058270;28;20477;-40
2022/11/09 03:21:20;;;;;;;2.55;1.60;;;;;;;18.59;56.98;100274.88;5052654;28;20043;-41
2022/11/09 03:23:46;;;;;;;1.70;1.30;;;;;;;18.59;57.05;100275.75;5047757;28;20041;-41
2022/11/09 03:26:12;;;;;;;2.67;1.52;;;;;;;18.58;57.04;100291.59;5043783;28;20758;-42
2022/11/09 03:28:37;;;;;;;2.53;1.30;;;;;;;18.58;57.05;100287.19;5053075;28;20037;-41
2022/11/09 03:31:03;;;;;;;4.18;1.75;;;;;;;18.58;57.11;100287.19;5048543;28;20033;-40
2022/11/09 03:33:28;;;;;;;2.55;1.30;;;;;;;18.58;56.80;100281.06;5056163;28;20105;-42
2022/11/09 03:35:54;;;;;;;2.25;1.33;;;;;;;18.58;56.91;100281.06;5046664;28;20114;-41
2022/11/09 03:38:19;;;;;;;2.03;1.38;;;;;;;18.58;56.92;100287.19;5053601;28;20036;-41
2022/11/09 03:40:45;;;;;;;4.38;1.77;;;;;;;18.57;56.90;100285.50;5048953;28;20041;-41
2022/11/09 03:43:10;;;;;;;2.58;1.35;;;;;;;18.58;56.88;100286.34;5051880;28;20049;-41
2022/11/09 03:45:35;;;;;;;3.45;1.63;;;;;;;18.59;57.06;100283.63;5050799;28;20037;-41
2022/11/09 03:48:01;;;;;;;2.92;1.58;;;;;;;18.57;56.71;100277.59;5050189;28;20098;-41
2022/11/09 03:50:28;;;;;;;2.17;1.42;;;;;;;18.56;56.98;100278.56;5052386;28;20571;-42
2022/11/09 03:52:53;;;;;;;2.10;1.20;;;;;;;18.57;56.94;100295.19;5045705;28;20071;-40
2022/11/09 03:55:19;;;;;;;3.22;1.63;;;;;;;18.57;56.93;100303.91;5049970;28;20126;-40
2022/11/09 03:57:45;;;;;;;3.00;1.90;;;;;;;18.57;56.96;100301.28;5052908;28;20048;-40
2022/11/09 04:00:13;;;;;;;3.42;1.55;;;;;;;18.57;57.03;100301.28;5052667;28;20111;-41
2022/11/09 04:02:39;;;;;;;2.45;1.67;;;;;;;18.59;56.89;100295.94;5046143;28;20079;-40
2022/11/09 04:05:05;;;;;;;2.15;1.23;;;;;;;18.57;57.03;100298.63;5053300;28;20705;-41
2022/11/09 04:07:30;;;;;;;2.78;1.55;;;;;;;18.57;56.99;100300.44;5049928;28;20115;-41
2022/11/09 04:09:56;;;;;;;2.67;1.55;;;;;;;18.57;56.89;100305.72;5052479;28;20717;-41
2022/11/09 04:12:21;;;;;;;2.42;1.65;;;;;;;18.57;56.89;100311.78;5043558;28;20117;-40
2022/11/09 04:14:47;;;;;;;2.50;1.52;;;;;;;18.57;56.91;100298.63;5046321;28;20044;-41
2022/11/09 04:17:12;;;;;;;2.22;1.25;;;;;;;18.57;57.04;100303.91;5045888;28;20151;-41
2022/11/09 04:19:37;;;;;;;1.58;1.05;;;;;;;18.56;57.04;100304.88;5047955;28;20056;-41
2022/11/09 04:22:02;;;;;;;2.17;1.63;;;;;;;18.56;56.88;100302.22;5051682;28;20063;-41
2022/11/09 04:24:28;;;;;;;2.75;1.10;;;;;;;18.56;57.07;100311.91;5051561;28;20056;-41
2022/11/09 04:26:53;;;;;;;2.33;1.40;;;;;;;18.56;56.97;100307.50;5052421;28;20036;-41
2022/11/09 04:29:19;;;;;;;3.25;1.33;;;;;;;18.58;57.07;100302.13;5047892;28;20044;-41
2022/11/09 04:31:46;;;;;;;2.30;1.30;;;;;;;18.55;57.10;100305.78;5051285;28;20045;-40
2022/11/09 04:34:11;;;;;;;3.15;1.63;;;;;;;18.56;57.07;100299.59;5055909;28;20747;-40
2022/11/09 04:36:37;;;;;;;1.75;1.25;;;;;;;18.56;57.07;100298.75;5050978;28;20041;-41
2022/11/09 04:39:02;;;;;;;2.08;1.20;;;;;;;18.55;57.08;100294.41;5048856;28;20973;-42
2022/11/09 04:41:28;;;;;;;2.38;1.23;;;;;;;18.56;56.94;100293.50;5053301;28;20447;-41
2022/11/09 04:43:53;;;;;;;1.75;1.25;;;;;;;18.55;57.02;100291.78;5046268;28;20132;-41
2022/11/09 04:46:18;;;;;;;2.75;1.27;;;;;;;18.55;57.08;100302.31;5046870;28;20060;-41
2022/11/09 04:48:44;;;;;;;2.22;1.55;;;;;;;18.55;57.09;100300.53;5052212;28;20041;-40
2022/11/09 04:51:10;;;;;;;1.75;1.23;;;;;;;18.55;57.07;100297.03;5049864;28;20039;-41
2022/11/09 04:53:38;;;;;;;2.05;1.33;;;;;;;18.55;57.04;100289.16;5048942;28;20093;-40
2022/11/09 04:56:04;;;;;;;2.63;1.35;;;;;;;18.55;57.02;100292.63;5043504;28;20047;-41
2022/11/09 04:58:30;;;;;;;1.92;1.13;;;;;;;18.54;57.02;100295.38;5045657;28;20537;-41
2022/11/09 05:01:02;;;;;;;2.30;1.25;;;;;;;18.55;56.98;100294.41;5050597;28;20033;-40
2022/11/09 05:03:27;;;;;;;2.38;1.30;;;;;;;18.54;57.10;100296.19;5052027;28;20057;-41
2022/11/09 05:05:52;;;;;;;2.53;1.42;;;;;;;18.53;56.96;100296.31;5046992;28;20070;-41
2022/11/09 05:08:18;;;;;;;2.28;1.50;;;;;;;18.54;56.96;100300.63;5047925;28;20051;-41
2022/11/09 05:10:43;;;;;;;2.47;1.30;;;;;;;18.54;56.92;100301.47;5043108;28;20111;-42
2022/11/09 05:13:10;;;;;;;2.90;1.17;;;;;;;18.54;56.92;100298.00;5054006;28;20041;-40
2022/11/09 05:15:36;;;;;;;2.67;1.20;;;;;;;18.54;57.04;100298.00;5048028;28;20491;-40
2022/11/09 05:18:02;;;;;;;2.58;1.30;;;;;;;18.54;57.09;100296.19;5046686;28;20032;-41
2022/11/09 05:20:28;;;;;;;2.25;1.40;;;;;;;18.54;57.02;100300.63;5039151;28;20120;-40
2022/11/09 05:25:39;;;;;;;3.05;1.30;;;;;;;18.54;56.81;100300.63;5048757;28;20101;-40
2022/11/09 05:28:05;;;;;;;1.90;1.05;;;;;;;18.55;56.92;100294.41;5046613;28;20036;-41
2022/11/09 05:30:30;;;;;;;2.33;1.20;;;;;;;18.53;56.97;100297.16;5049931;28;20032;-40
2022/11/09 05:32:55;;;;;;;2.72;1.10;;;;;;;18.53;56.95;100301.56;5047702;28;20052;-41
2022/11/09 05:35:21;;;;;;;1.92;1.10;;;;;;;18.53;57.09;100312.09;5047403;28;20041;-40
2022/11/09 05:37:48;;;;;;;1.77;1.38;;;;;;;18.54;56.93;100316.41;5051380;28;20029;-41
2022/11/09 05:40:14;;;;;;;1.85;1.35;;;;;;;18.53;56.95;100314.72;5052943;28;20068;-40
2022/11/09 05:42:40;;;;;;;1.60;1.23;;;;;;;18.52;57.16;100323.53;5047474;28;20032;-40
2022/11/09 05:45:07;;;;;;;2.05;1.00;;;;;;;18.51;57.09;100325.31;5046750;28;20594;-40
2022/11/09 05:47:37;;;;;;;2.67;1.40;;;;;;;18.52;57.16;100320.91;5045236;28;20090;-40
2022/11/09 05:50:02;;;;;;;2.42;1.48;;;;;;;18.51;57.11;100314.81;5050638;28;20529;-41
2022/11/09 05:52:28;;;;;;;3.05;1.10;;;;;;;18.52;57.12;100310.38;5044219;28;20036;-41
2022/11/09 05:54:53;;;;;;;2.15;1.48;;;;;;;18.53;57.11;100302.41;5047207;28;20118;-41
2022/11/09 05:57:18;;;;;;;2.22;1.40;;;;;;;18.56;57.04;100304.00;5050657;28;20037;-41
2022/11/09 05:59:44;;;;;;;2.22;1.50;;;;;;;18.58;56.80;100305.59;5048232;28;20043;-41
2022/11/09 06:02:09;;;;;;;1.75;1.23;;;;;;;18.62;56.84;100306.28;5050679;28;20863;-40
2022/11/09 06:04:35;;;;;;;2.03;1.20;;;;;;;18.66;56.65;100310.38;5051374;28;20082;-41
2022/11/09 06:07:01;;;;;;;2.85;1.50;;;;;;;18.67;56.65;100312.94;5050687;28;20082;-41
2022/11/09 06:09:26;;;;;;;2.03;1.30;;;;;;;18.72;56.55;100319.72;5052978;28;20059;-42
2022/11/09 06:11:52;;;;;;;2.10;1.45;;;;;;;18.68;56.76;100316.41;5049358;28;20497;-41
2022/11/09 06:14:17;;;;;;;1.83;1.17;;;;;;;18.73;56.63;100311.72;5049910;28;20037;-42
2022/11/09 06:16:42;;;;;;;1.75;1.10;;;;;;;18.71;56.59;100313.59;5052842;28;20533;-42
2022/11/09 06:19:08;;;;;;;2.10;1.20;;;;;;;18.71;56.66;100313.59;5050738;28;20489;-41
2022/11/09 06:21:33;;;;;;;1.40;0.95;;;;;;;18.74;56.65;100316.03;5049035;28;20039;-41
2022/11/09 06:23:59;;;;;;;1.88;1.20;;;;;;;18.72;56.59;100319.72;5030801;28;20040;-41
2022/11/09 06:26:24;;;;;;;1.42;1.13;;;;;;;18.78;56.61;100312.25;5046467;28;20033;-43
2022/11/09 06:28:49;;;;;;;1.90;1.05;;;;;;;18.77;56.59;100315.84;5048307;28;20048;-42
2022/11/09 06:31:16;;;;;;;2.55;1.27;;;;;;;18.97;56.47;100312.81;5045584;28;20095;-40
2022/11/09 06:33:42;;;;;;;1.55;1.02;;;;;;;18.91;56.40;100310.56;5044436;28;20087;-40
2022/11/09 06:36:10;;;;;;;2.90;1.10;;;;;;;18.95;56.06;100312.06;5047584;28;21046;-40
2022/11/09 06:38:35;;;;;;;2.05;1.00;;;;;;;18.95;56.28;100327.03;5051370;28;20048;-41
2022/11/09 06:41:01;;;;;;;5.60;1.20;;;;;;;18.95;56.37;100325.25;5046040;28;20411;-39
2022/11/09 06:43:26;;;;;;;7.05;1.20;;;;;;;18.94;56.28;100326.16;5046003;28;20489;-40
2022/11/09 06:45:52;;;;;;;3.28;1.17;;;;;;;18.93;56.21;100331.50;5042538;28;20486;-40
2022/11/09 06:48:18;;;;;;;3.53;1.10;;;;;;;18.89;56.48;100338.78;5041444;28;20044;-40
2022/11/09 06:50:46;;;;;;;1.50;0.77;;;;;;;18.86;56.54;100344.22;5043168;28;20142;-40
2022/11/09 06:53:13;;;;;;;3.40;1.35;;;;;;;18.88;56.58;100342.34;5050172;28;20517;-40
2022/11/09 06:55:39;;;;;;;1.30;1.00;;;;;;;18.88;56.49;100341.50;5046303;28;20082;-40
2022/11/09 06:58:12;;;;;;;2.47;1.10;;;;;;;18.87;56.93;100345.09;5048389;28;20044;-40
2022/11/09 07:00:38;;;;;;;2.30;1.15;;;;;;;18.91;56.66;100336.88;5047204;28;20037;-40
2022/11/09 07:03:03;;;;;;;2.58;1.10;;;;;;;18.95;57.30;100345.44;5045245;28;20033;-39
2022/11/09 07:05:29;;;;;;;3.60;1.50;;;;;;;18.97;56.91;100354.09;5052009;28;20119;-41
2022/11/09 07:07:55;;;;;;;5.05;1.38;;;;;;;18.98;56.83;100345.25;5052145;28;20099;-42
2022/11/09 07:10:21;;;;;;;2.95;1.40;;;;;;;18.98;56.62;100347.88;5048361;28;20036;-41
2022/11/09 07:12:46;;;;;;;3.08;1.15;;;;;;;18.99;56.74;100350.41;5043447;28;20040;-42
2022/11/09 07:15:12;;;;;;;2.47;0.70;;;;;;;19.25;56.76;100354.06;5046480;28;20045;-40
2022/11/09 07:17:39;;;;;;;3.60;1.50;;;;;;;19.32;56.65;100362.41;5046710;28;20082;-44
2022/11/09 07:20:06;;;;;;;3.30;1.10;;;;;;;19.56;55.81;100366.13;5044729;28;20627;-43
2022/11/09 07:22:33;;;;;;;1.90;0.90;;;;;;;19.68;55.90;100365.34;5046032;28;20119;-43
2022/11/09 07:24:59;;;;;;;2.92;1.17;;;;;;;19.65;55.19;100360.28;5049160;28;20032;-43
2022/11/09 07:27:25;;;;;;;4.60;1.10;;;;;;;19.65;55.64;100363.75;5047327;28;20037;-43
2022/11/09 07:29:50;;;;;;;2.53;1.27;;;;;;;19.77;56.14;100355.06;5050905;28;20596;-42
2022/11/09 07:32:15;;;;;;;2.22;0.73;;;;;;;19.83;55.85;100364.34;5045602;28;20585;-44
2022/11/09 07:34:41;;;;;;;2.75;1.00;;;;;;;19.81;55.88;100355.69;5047684;28;20052;-44
2022/11/09 07:37:07;;;;;;;2.92;0.85;;;;;;;19.84;55.93;100365.19;5052225;28;20077;-42
2022/11/09 07:39:33;;;;;;;2.33;1.00;;;;;;;19.85;56.08;100369.53;5045860;28;20170;-41
2022/11/09 07:41:58;;;;;;;0.88;0.65;;;;;;;19.90;56.07;100368.28;5051133;28;20793;-41
2022/11/09 07:44:24;;;;;;;2.60;0.98;;;;;;;19.94;55.80;100367.13;5045854;28;20620;-43
2022/11/09 07:46:49;;;;;;;1.77;1.00;;;;;;;19.89;56.02;100376.28;5045868;28;20047;-42
2022/11/09 07:49:16;;;;;;;2.55;1.00;;;;;;;19.92;56.12;100383.97;5048235;28;20049;-43
2022/11/09 07:51:42;;;;;;;4.65;0.85;;;;;;;19.93;56.07;100388.31;5047802;28;20486;-43
2022/11/09 07:54:08;;;;;;;1.67;1.00;;;;;;;19.98;56.05;100389.69;5068619;28;20037;-41
2022/11/09 07:56:35;;;;;;;2.22;0.88;;;;;;;20.04;56.18;100384.03;5050639;28;20497;-41
2022/11/09 07:59:00;;;;;;;3.35;1.33;;;;;;;20.00;56.21;100395.72;5045998;28;20037;-41
2022/11/09 08:01:28;;;;;;;2.20;1.08;;;;;;;20.03;56.24;100399.94;5048169;28;20729;-42
2022/11/09 08:03:54;;;;;;;2.65;1.38;;;;;;;19.89;56.61;100395.56;5050388;28;20119;-44
2022/11/09 08:06:21;;;;;;;2.00;1.10;;;;;;;20.09;56.20;100404.84;5052348;28;20609;-43
2022/11/09 08:08:48;;;;;;;1.45;0.98;;;;;;;20.09;56.10;100408.31;5051189;28;20667;-41
2022/11/09 08:11:14;;;;;;;2.22;1.25;;;;;;;20.13;55.95;100406.34;5051379;28;20098;-42
2022/11/09 08:13:39;;;;;;;2.17;0.85;;;;;;;20.14;55.83;100408.03;5047758;28;20731;-41
2022/11/09 08:16:05;;;;;;;2.05;0.95;;;;;;;20.12;55.96;100407.28;5045614;28;20040;-43
2022/11/09 08:18:30;;;;;;;2.22;0.95;;;;;;;20.10;54.91;100410.03;5047235;28;20064;-43
2022/11/09 08:20:56;;;;;;;2.70;0.90;;;;;;;19.90;56.70;100407.81;5049901;28;20090;-42
2022/11/09 08:23:21;;;;;;;2.53;1.13;;;;;;;19.87;56.08;100410.66;5049275;28;20032;-42
2022/11/09 08:25:48;;;;;;;1.95;1.00;;;;;;;20.15;56.27;100414.97;5047283;28;20102;-42
2022/11/09 08:28:17;;;;;;;2.08;0.90;;;;;;;20.17;55.95;100413.94;5048728;28;20183;-42
2022/11/09 08:30:43;;;;;;;1.40;0.80;;;;;;;20.30;55.90;100411.31;5045454;28;20043;-41
2022/11/09 08:33:09;;;;;;;2.83;1.20;;;;;;;20.23;55.62;100410.88;5048722;28;20102;-42
2022/11/09 08:35:34;;;;;;;1.60;0.93;;;;;;;20.02;54.59;100411.44;5045692;28;20041;-43
2022/11/09 08:38:02;;;;;;;2.90;0.80;;;;;;;20.09;56.27;100421.50;5052046;28;20151;-40
2022/11/09 08:40:28;;;;;;;1.83;1.00;;;;;;;19.82;55.04;100422.44;5050407;28;20045;-42
2022/11/09 08:42:53;;;;;;;4.22;0.80;;;;;;;20.08;56.45;100422.47;5051314;28;20150;-47
2022/11/09 08:45:19;;;;;;;2.33;1.00;;;;;;;20.07;55.11;100425.16;5052110;28;20048;-46
2022/11/09 08:47:45;;;;;;;1.50;1.00;;;;;;;20.31;55.73;100424.44;5046162;28;20048;-49
2022/11/09 08:50:15;;;;;;;1.85;1.02;;;;;;;20.27;55.64;100427.34;5043501;28;20039;-41
2022/11/09 08:52:41;;;;;;;1.60;0.77;;;;;;;19.98;56.40;100437.16;5052539;28;20961;-41
2022/11/09 08:55:07;;;;;;;2.83;1.05;;;;;;;19.91;54.07;100435.84;5048376;28;20037;-40
2022/11/09 08:57:32;;;;;;;4.78;1.02;;;;;;;20.04;55.47;100442.03;5053772;28;20040;-41
2022/11/09 08:59:57;;;;;;;1.52;0.90;;;;;;;20.18;56.22;100438.50;5046555;28;20050;-38
2022/11/09 09:02:23;;;;;;;1.65;0.80;;;;;;;19.98;56.36;100442.44;5048059;28;20028;-38
2022/11/09 09:04:49;;;;;;;2.40;0.85;;;;;;;20.13;54.35;100444.09;5046978;28;20036;-41
2022/11/09 09:07:14;;;;;;;3.72;1.00;;;;;;;19.91;57.04;100446.41;5046488;28;20043;-41
2022/11/09 09:09:40;;;;;;;2.60;0.95;;;;;;;20.30;55.57;100446.47;5051760;28;20149;-42
2022/11/09 09:12:07;;;;;;;4.18;1.10;;;;;;;20.25;56.42;100437.19;5051013;28;20035;-41
2022/11/09 09:14:32;;;;;;;2.28;1.02;;;;;;;20.28;56.05;100445.75;5047435;28;20041;-40
2022/11/09 09:16:58;;;;;;;1.92;1.05;;;;;;;20.06;56.23;100436.66;5047504;28;20033;-40
2022/11/09 09:19:24;;;;;;;2.22;0.90;;;;;;;19.99;56.36;100441.50;5049410;28;20484;-43
2022/11/09 09:21:49;;;;;;;2.78;1.10;;;;;;;19.86;55.09;100437.09;5050059;28;20124;-42
2022/11/09 09:24:14;;;;;;;2.70;0.85;;;;;;;19.72;55.05;100440.63;5048306;28;20028;-39
2022/11/09 09:26:40;;;;;;;1.80;0.88;;;;;;;19.62;55.33;100444.78;5049455;28;20045;-42
2022/11/09 09:29:05;;;;;;;1.75;1.10;;;;;;;19.92;54.90;100452.53;5061874;28;20075;-41
2022/11/09 09:31:31;;;;;;;1.70;0.88;;;;;;;20.11;55.78;100446.00;5048330;28;20062;-39
2022/11/09 09:33:56;;;;;;;2.28;1.10;;;;;;;20.09;56.51;100447.03;5051333;28;20490;-39
2022/11/09 09:36:23;;;;;;;2.90;0.80;;;;;;;20.10;55.78;100454.84;5059727;28;20118;-41
2022/11/09 09:38:52;;;;;;;3.15;1.00;;;;;;;19.96;56.06;100454.03;5046396;28;20049;-38
2022/11/09 09:41:27;;;;;;;3.33;1.05;;;;;;;19.88;54.85;100461.59;5045338;28;20056;-39
2022/11/09 09:43:57;;;;;;;;;;;;;;;19.99;57.09;100459.09;5044237;28;20032;-39
2022/11/09 09:46:31;;;;;;;1.88;1.00;;;;;;;19.93;55.90;100462.13;5049854;28;19923;-40
2022/11/09 09:49:06;;;;;;;2.15;0.90;;;;;;;19.78;55.05;100459.53;5052204;28;20471;-40
2022/11/09 09:51:41;;;;;;;1.95;1.10;;;;;;;19.68;55.68;100470.75;5046632;28;20028;-40
2022/11/09 09:54:24;;;;;;;5.50;0.93;;;;;;;19.68;55.36;100470.75;5045956;28;20041;-40
2022/11/09 09:56:52;;;;;;;2.80;0.82;;;;;;;19.60;55.64;100471.25;5039999;28;20044;-39
2022/11/09 09:59:25;;;;;;;4.57;0.90;;;;;;;19.65;56.33;100481.50;5051375;28;20033;-38
2022/11/09 10:01:51;;;;;;;3.70;1.30;;;;;;;19.75;57.63;100483.47;5043653;28;20136;-42
2022/11/09 10:04:22;;;;;;;0.90;0.68;;;;;;;19.55;55.40;100483.03;5052851;28;20041;-41
2022/11/09 10:06:57;;;;;;;3.92;0.95;;;;;;;19.47;56.09;100491.38;5049564;28;20061;-39
2022/11/09 10:09:51;;;;;;;4.97;0.98;;;;;;;19.64;56.68;100491.19;5048043;28;20021;-38
2022/11/09 10:12:30;;;;;;;3.85;1.17;;;;;;;19.55;55.58;100491.75;5051332;28;20524;-40
2022/11/09 10:15:20;;;;;;;2.45;1.13;;;;;;;19.52;55.50;100494.56;5040634;28;20056;-40
2022/11/09 10:18:07;;;;;;;2.03;0.80;;;;;;;19.52;56.04;100497.22;5050100;28;20072;-40
2022/11/09 10:20:55;;;;;;;3.25;0.98;;;;;;;19.59;56.16;100497.69;5045424;28;20040;-41
2022/11/09 10:23:58;;;;;;;1.77;1.02;;;;;;;19.56;55.54;100501.34;5007097;28;20045;-42
2022/11/09 10:26:36;;;;;;;1.58;0.90;;;;;;;19.47;56.45;100503.72;5047825;28;20040;-41
2022/11/09 10:29:18;;;;;;;1.90;1.00;;;;;;;19.38;56.15;100507.75;5055095;28;20124;-42
2022/11/09 10:31:46;;;;;;;4.00;1.10;;;;;;;19.30;56.24;100507.41;5048073;28;20045;-44
2022/11/09 10:34:17;;;;;;;1.98;0.98;;;;;;;19.43;56.54;100503.03;5048962;28;20410;-44
2022/11/09 10:37:02;;;;;;;4.03;1.23;;;;;;;19.43;57.39;100510.13;5049024;28;20048;-44
2022/11/09 10:39:36;;;;;;;2.47;0.95;;;;;;;19.49;57.10;100518.47;5046343;28;20028;-46
2022/11/09 10:42:02;;;;;;;2.00;1.02;;;;;;;19.44;56.36;100519.69;5047338;28;20036;-43
2022/11/09 10:44:27;;;;;;;1.65;0.82;;;;;;;19.47;58.02;100507.19;5051060;28;20119;-41
2022/11/09 10:47:05;;;;;;;2.50;0.95;;;;;;;19.40;56.23;100516.41;5050393;28;22087;-41
2022/11/09 10:49:32;;;;;;;2.60;0.60;;;;;;;19.39;57.20;100519.16;5049141;28;20606;-42
2022/11/09 10:51:58;;;;;;;1.92;0.60;;;;;;;19.44;56.42;100514.44;5047896;28;20043;-42
2022/11/09 10:54:31;;;;;;;1.92;0.80;;;;;;;19.51;58.60;100524.53;5050793;28;20131;-43
2022/11/09 10:57:09;;;;;;;1.67;0.63;;;;;;;19.48;56.76;100526.50;5047575;28;20607;-42
2022/11/09 10:59:56;;;;;;;1.92;0.80;;;;;;;19.38;56.18;100523.56;5046618;28;20051;-42
2022/11/09 11:02:24;;;;;;;2.85;0.70;;;;;;;19.43;57.03;100523.31;5045386;28;20101;-42
2022/11/09 11:05:05;;;;;;;2.80;0.90;;;;;;;19.49;58.08;100531.66;5044364;28;20310;-42
2022/11/09 11:07:35;;;;;;;1.88;1.00;;;;;;;19.60;56.55;100534.50;5045574;28;20044;-43
2022/11/09 11:10:15;;;;;;;2.85;0.88;;;;;;;19.50;55.94;100525.44;5041632;28;20119;-45
2022/11/09 11:13:20;;;;;;;1.58;0.80;;;;;;;19.64;57.85;100535.16;5047747;28;20028;-43
2022/11/09 11:15:46;;;;;;;2.20;0.88;;;;;;;19.50;56.68;100535.13;5047131;28;20071;-43
2022/11/09 11:18:18;;;;;;;4.50;1.13;;;;;;;19.52;56.13;100528.00;5047744;28;20099;-42
2022/11/09 11:20:43;;;;;;;4.00;1.08;;;;;;;19.50;58.34;100530.72;5050046;28;20041;-42
2022/11/09 11:23:13;;;;;;;2.83;0.60;;;;;;;19.82;57.88;100533.16;5042767;28;20607;-39
2022/11/09 11:25:56;;;;;;;3.63;1.15;;;;;;;19.72;55.65;100525.81;5048112;28;20037;-42
2022/11/09 11:28:34;;;;;;;4.03;1.23;;;;;;;19.65;56.45;100532.41;5054853;28;20041;-40
2022/11/09 11:31:01;;;;;;;1.75;0.82;;;;;;;19.65;56.96;100535.03;5054816;28;20040;-42